Time;durP1;ratioP1;P1;durP2;ratioP2;P2;SDS_P1;SDS_P2;PMS_P1;PMS_P2;Temp;Humidity;BMP_temperature;BMP_pressure;BME280_temperature;BME280_humidity;BME280_pressure;Samples;Min_cycle;Max_cycle;Signal;HPM_P1;HPM_P2
2022/06/26 00:01:29;;;;;;;15.60;4.17;;;19.30;99.90;;;;;;5046750;28;20482;-53
2022/06/26 00:03:56;;;;;;;4.27;3.87;;;19.30;99.90;;;;;;5057674;28;20990;-51
2022/06/26 00:06:25;;;;;;;4.90;4.07;;;19.30;99.90;;;;;;5059574;28;20478;-52
2022/06/26 00:08:51;;;;;;;4.20;3.50;;;19.40;99.90;;;;;;5052902;28;21065;-51
2022/06/26 00:11:18;;;;;;;4.43;2.87;;;19.40;99.90;;;;;;5061012;28;20893;-52
2022/06/26 00:13:45;;;;;;;6.63;2.63;;;19.40;99.90;;;;;;5048120;28;20495;-51
2022/06/26 00:16:12;;;;;;;4.30;3.70;;;19.50;99.90;;;;;;5045716;28;20482;-51
2022/06/26 00:18:40;;;;;;;2.80;2.47;;;19.50;99.90;;;;;;5048588;28;20477;-51
2022/06/26 00:21:08;;;;;;;4.33;2.73;;;19.50;99.90;;;;;;5048112;28;20596;-51
2022/06/26 00:23:36;;;;;;;2.97;2.67;;;19.50;99.90;;;;;;5053356;28;20498;-51
2022/06/26 00:26:04;;;;;;;3.70;2.73;;;19.40;99.90;;;;;;5057375;28;20463;-51
2022/06/26 00:28:31;;;;;;;3.30;2.30;;;19.40;99.90;;;;;;5061757;28;20495;-51
2022/06/26 00:30:58;;;;;;;2.60;2.40;;;19.20;99.90;;;;;;5061562;28;21154;-51
2022/06/26 00:33:24;;;;;;;6.00;2.70;;;19.20;99.90;;;;;;5055433;28;20493;-52
2022/06/26 00:35:51;;;;;;;3.47;2.30;;;19.20;99.90;;;;;;5045310;28;20483;-52
2022/06/26 00:38:18;;;;;;;2.50;2.30;;;19.20;99.90;;;;;;5060931;28;20735;-52
2022/06/26 00:40:46;;;;;;;2.87;1.93;;;19.20;99.90;;;;;;5060795;28;20976;-52
2022/06/26 00:43:12;;;;;;;3.47;2.27;;;19.30;99.90;;;;;;5049639;28;20876;-52
2022/06/26 00:45:39;;;;;;;2.20;1.80;;;19.20;99.90;;;;;;5061099;28;21299;-52
2022/06/26 00:48:06;;;;;;;5.33;2.47;;;19.20;99.90;;;;;;5052064;28;21053;-52
2022/06/26 00:50:33;;;;;;;2.50;2.00;;;19.20;99.90;;;;;;5057903;28;20483;-52
2022/06/26 00:52:59;;;;;;;2.53;1.67;;;19.20;99.90;;;;;;5060689;28;20476;-52
2022/06/26 00:55:26;;;;;;;4.50;2.30;;;19.20;99.90;;;;;;5061864;28;20487;-51
2022/06/26 00:57:55;;;;;;;3.10;1.90;;;19.30;99.90;;;;;;5057983;28;20479;-51
2022/06/26 01:00:21;;;;;;;1.90;1.50;;;19.30;99.90;;;;;;5063258;28;20530;-52
2022/06/26 01:02:48;;;;;;;3.57;2.33;;;19.50;99.90;;;;;;5053785;28;20492;-52
2022/06/26 01:05:15;;;;;;;4.10;2.00;;;19.50;99.90;;;;;;5058134;28;20882;-52
2022/06/26 01:07:41;;;;;;;2.70;2.17;;;19.60;99.90;;;;;;5062582;28;21191;-52
2022/06/26 01:10:09;;;;;;;2.73;2.23;;;19.70;99.90;;;;;;5061596;28;20530;-52
2022/06/26 01:12:36;;;;;;;3.43;2.57;;;19.70;99.90;;;;;;5061219;28;20485;-52
2022/06/26 01:15:07;;;;;;;2.83;1.90;;;19.90;99.90;;;;;;5049370;28;20477;-52
2022/06/26 01:17:35;;;;;;;2.30;1.93;;;19.90;99.90;;;;;;5038339;28;20471;-53
2022/06/26 01:20:02;;;;;;;3.93;1.60;;;20.00;99.90;;;;;;5046343;28;20635;-52
2022/06/26 01:22:31;;;;;;;3.97;2.17;;;20.00;99.90;;;;;;5051415;28;21626;-52
2022/06/26 01:24:57;;;;;;;2.37;1.77;;;20.00;99.90;;;;;;5061964;28;20573;-54
2022/06/26 01:27:24;;;;;;;3.03;1.97;;;20.00;99.90;;;;;;5063135;28;20492;-52
2022/06/26 01:29:51;;;;;;;2.20;1.77;;;19.90;99.90;;;;;;5065203;28;20477;-52
2022/06/26 01:32:18;;;;;;;6.67;2.10;;;19.80;99.90;;;;;;5042033;28;20494;-52
2022/06/26 01:34:45;;;;;;;2.80;2.20;;;19.60;99.90;;;;;;5063708;28;20481;-52
2022/06/26 01:37:11;;;;;;;4.73;2.33;;;19.40;99.90;;;;;;5062424;28;20650;-52
2022/06/26 01:39:39;;;;;;;4.83;2.43;;;19.40;99.90;;;;;;5067579;28;20493;-52
2022/06/26 01:42:06;;;;;;;1.90;1.47;;;19.50;99.90;;;;;;5049017;28;20490;-52
2022/06/26 01:44:33;;;;;;;2.97;1.60;;;19.50;99.90;;;;;;5058667;28;20578;-52
2022/06/26 01:46:59;;;;;;;5.30;1.60;;;19.40;99.90;;;;;;5061163;28;20479;-52
2022/06/26 01:49:26;;;;;;;3.50;1.80;;;19.50;99.90;;;;;;5064663;28;20534;-51
2022/06/26 01:51:54;;;;;;;2.27;1.97;;;19.60;99.90;;;;;;5031076;28;20671;-52
2022/06/26 01:54:20;;;;;;;2.40;2.00;;;19.70;99.90;;;;;;5066525;28;21467;-52
2022/06/26 01:56:48;;;;;;;5.23;1.87;;;19.60;99.90;;;;;;5063257;28;20565;-51
2022/06/26 01:59:15;;;;;;;9.60;2.10;;;19.60;99.90;;;;;;5065598;28;20488;-51
2022/06/26 02:01:42;;;;;;;4.50;2.17;;;19.50;99.90;;;;;;5064888;28;20488;-51
2022/06/26 02:04:09;;;;;;;6.50;1.97;;;19.40;99.90;;;;;;5063738;28;20497;-51
2022/06/26 02:06:35;;;;;;;4.03;2.10;;;19.30;99.90;;;;;;5062550;28;20947;-51
2022/06/26 02:09:02;;;;;;;2.63;2.43;;;19.40;99.90;;;;;;5054194;28;20837;-52
2022/06/26 02:14:15;;;;;;;2.60;2.00;;;19.20;99.90;;;;;;5064308;28;20480;-51
2022/06/26 02:16:42;;;;;;;4.20;2.13;;;19.20;99.90;;;;;;5058954;28;20485;-51
2022/06/26 02:19:09;;;;;;;5.60;2.37;;;19.20;99.90;;;;;;5062233;28;20482;-51
2022/06/26 02:21:38;;;;;;;8.87;2.00;;;19.30;99.90;;;;;;5066304;28;20856;-51
2022/06/26 02:24:06;;;;;;;3.10;2.30;;;19.30;99.90;;;;;;5062327;28;20562;-51
2022/06/26 02:26:32;;;;;;;7.50;2.00;;;19.30;99.90;;;;;;5062233;28;21006;-52
2022/06/26 02:28:59;;;;;;;2.47;2.27;;;19.30;99.90;;;;;;5063833;28;20478;-52
2022/06/26 02:31:27;;;;;;;4.90;3.00;;;19.00;99.90;;;;;;5062293;28;20481;-52
2022/06/26 02:33:54;;;;;;;4.57;2.60;;;18.90;99.90;;;;;;5058144;28;20474;-51
2022/06/26 02:36:21;;;;;;;4.43;2.00;;;18.60;99.90;;;;;;5062446;28;20850;-51
2022/06/26 02:38:47;;;;;;;3.63;2.97;;;18.50;99.90;;;;;;5063937;28;20485;-51
2022/06/26 02:41:14;;;;;;;3.63;1.77;;;18.60;99.90;;;;;;5061132;28;20482;-51
2022/06/26 02:43:41;;;;;;;8.83;1.87;;;18.70;99.90;;;;;;5062368;28;20476;-51
2022/06/26 02:46:07;;;;;;;6.20;2.93;;;18.70;99.90;;;;;;5042210;28;20489;-52
2022/06/26 02:48:35;;;;;;;3.80;2.07;;;18.60;99.90;;;;;;5034316;28;20487;-52
2022/06/26 02:51:02;;;;;;;3.93;1.77;;;18.50;99.90;;;;;;5055934;28;20502;-50
2022/06/26 02:53:29;;;;;;;4.03;1.90;;;18.60;99.90;;;;;;5061810;28;20995;-51
2022/06/26 02:55:55;;;;;;;2.53;1.93;;;18.60;99.90;;;;;;5058513;28;20481;-51
2022/06/26 02:58:22;;;;;;;9.97;2.00;;;18.70;99.90;;;;;;5036590;28;20500;-51
2022/06/26 03:00:51;;;;;;;2.40;2.00;;;18.60;99.90;;;;;;5050232;28;20482;-52
2022/06/26 03:03:18;;;;;;;2.00;1.77;;;18.60;99.90;;;;;;5055703;28;20482;-52
2022/06/26 03:05:46;;;;;;;4.10;1.70;;;18.60;99.90;;;;;;5053880;28;20483;-52
2022/06/26 03:08:12;;;;;;;6.53;3.40;;;18.60;99.90;;;;;;5060925;28;20918;-52
2022/06/26 03:10:39;;;;;;;2.70;1.90;;;18.60;99.90;;;;;;5048483;28;20988;-52
2022/06/26 03:13:05;;;;;;;3.03;2.07;;;18.30;99.90;;;;;;5055586;28;20486;-52
2022/06/26 03:15:33;;;;;;;7.63;2.47;;;18.20;99.90;;;;;;5056272;28;20487;-52
2022/06/26 03:18:02;;;;;;;2.90;2.33;;;18.20;99.90;;;;;;5024726;28;20858;-53
2022/06/26 03:20:29;;;;;;;5.03;2.00;;;18.30;99.90;;;;;;5054456;28;20483;-52
2022/06/26 03:22:57;;;;;;;7.33;2.50;;;18.20;99.90;;;;;;5052452;28;20477;-52
2022/06/26 03:25:24;;;;;;;10.20;2.30;;;18.20;99.90;;;;;;5043219;28;20487;-52
2022/06/26 03:27:51;;;;;;;10.43;1.77;;;18.30;99.90;;;;;;5050604;28;20475;-52
2022/06/26 03:30:18;;;;;;;2.47;2.10;;;18.20;99.90;;;;;;5051774;28;20566;-53
2022/06/26 03:32:44;;;;;;;7.73;2.30;;;18.00;99.90;;;;;;5056261;28;20933;-52
2022/06/26 03:35:12;;;;;;;4.40;2.37;;;18.00;99.90;;;;;;5055654;28;20471;-52
2022/06/26 03:37:39;;;;;;;2.37;2.07;;;17.90;99.90;;;;;;5059880;28;20477;-53
2022/06/26 03:40:09;;;;;;;5.17;2.30;;;17.80;99.90;;;;;;5057682;28;20483;-52
2022/06/26 03:42:36;;;;;;;11.53;2.23;;;17.70;99.90;;;;;;5059876;28;20972;-52
2022/06/26 03:45:04;;;;;;;3.90;2.50;;;17.70;99.90;;;;;;5054167;28;20569;-52
2022/06/26 03:47:30;;;;;;;8.40;2.90;;;17.70;99.90;;;;;;5053975;28;20514;-53
2022/06/26 03:49:57;;;;;;;4.43;3.20;;;17.90;99.90;;;;;;5052298;28;20519;-52
2022/06/26 03:52:25;;;;;;;5.30;2.47;;;;;;;;;;5051334;28;20478;-52
2022/06/26 03:54:53;;;;;;;3.70;2.00;;;18.10;99.90;;;;;;5057550;28;20521;-52
2022/06/26 03:57:21;;;;;;;3.27;3.00;;;18.10;99.90;;;;;;5055645;28;20487;-52
2022/06/26 03:59:47;;;;;;;6.13;2.70;;;18.10;99.90;;;;;;5055695;28;20467;-52
2022/06/26 04:02:14;;;;;;;4.30;3.37;;;18.00;99.90;;;;;;5048639;28;20477;-52
2022/06/26 04:04:41;;;;;;;4.43;3.47;;;17.90;99.90;;;;;;5055973;28;20490;-52
2022/06/26 04:07:07;;;;;;;5.43;3.10;;;17.90;99.90;;;;;;5050372;28;20471;-52
2022/06/26 04:09:34;;;;;;;3.23;2.30;;;17.80;99.90;;;;;;5056374;28;20860;-53
2022/06/26 04:12:01;;;;;;;5.80;2.30;;;17.70;99.90;;;;;;5053218;28;21205;-52
2022/06/26 04:14:29;;;;;;;3.73;3.00;;;17.70;99.90;;;;;;5054485;28;20574;-52
2022/06/26 04:16:56;;;;;;;4.80;2.77;;;17.70;99.90;;;;;;5055641;28;20589;-52
2022/06/26 04:19:22;;;;;;;10.30;3.90;;;17.80;99.90;;;;;;5056992;28;20486;-51
2022/06/26 04:21:49;;;;;;;6.00;2.67;;;;;;;;;;5054937;28;20999;-52
2022/06/26 04:24:16;;;;;;;9.73;3.10;;;18.20;99.90;;;;;;5055604;28;20474;-52
2022/06/26 04:26:43;;;;;;;8.30;3.23;;;18.40;99.90;;;;;;5056011;28;20490;-52
2022/06/26 04:29:09;;;;;;;8.30;2.60;;;18.50;99.90;;;;;;5056314;28;20490;-54
2022/06/26 04:31:38;;;;;;;14.63;3.40;;;18.60;99.90;;;;;;5049285;28;20489;-51
2022/06/26 04:34:04;;;;;;;5.23;2.87;;;18.70;99.90;;;;;;5055532;28;20953;-51
2022/06/26 04:36:31;;;;;;;7.30;3.10;;;18.90;99.90;;;;;;5058069;28;20485;-51
2022/06/26 04:38:58;;;;;;;9.47;3.00;;;19.10;99.90;;;;;;5054073;28;20980;-51
2022/06/26 04:41:34;;;;;;;4.87;3.73;;;19.10;99.90;;;;;;5058737;28;20494;-51
2022/06/26 04:44:02;;;;;;;5.63;2.33;;;19.20;99.90;;;;;;5056059;28;21015;-51
2022/06/26 04:46:29;;;;;;;4.43;2.47;;;19.30;99.90;;;;;;5053980;28;21389;-51
2022/06/26 04:48:57;;;;;;;2.50;2.30;;;19.30;99.90;;;;;;5055919;28;20480;-51
2022/06/26 04:51:24;;;;;;;7.30;3.10;;;19.30;99.90;;;;;;5057641;28;21106;-51
2022/06/26 04:53:51;;;;;;;7.30;3.57;;;19.40;99.90;;;;;;5055873;28;20841;-52
2022/06/26 04:56:17;;;;;;;7.80;2.50;;;19.40;99.90;;;;;;5053445;28;20479;-52
2022/06/26 04:58:44;;;;;;;12.07;2.53;;;19.50;99.90;;;;;;5056664;28;20491;-52
2022/06/26 05:01:11;;;;;;;9.70;2.47;;;19.60;99.90;;;;;;5056578;28;20851;-52
2022/06/26 05:03:38;;;;;;;10.57;3.07;;;19.60;99.90;;;;;;5056121;28;20479;-52
2022/06/26 05:06:06;;;;;;;11.57;3.70;;;19.80;99.90;;;;;;5058528;28;20996;-52
2022/06/26 05:08:33;;;;;;;13.43;2.87;;;19.80;99.90;;;;;;5061745;28;20474;-51
2022/06/26 05:10:59;;;;;;;6.13;2.60;;;20.00;99.90;;;;;;5060576;28;21098;-51
2022/06/26 05:13:26;;;;;;;7.10;2.30;;;20.10;99.90;;;;;;5065170;28;20482;-51
2022/06/26 05:15:53;;;;;;;4.97;2.47;;;20.00;99.90;;;;;;5030078;28;21246;-52
2022/06/26 05:18:20;;;;;;;3.70;2.13;;;20.10;99.90;;;;;;5052197;28;20483;-52
2022/06/26 05:20:47;;;;;;;3.50;2.60;;;20.10;99.90;;;;;;5052993;28;20496;-52
2022/06/26 05:23:15;;;;;;;11.87;3.00;;;20.10;99.90;;;;;;5062080;28;21095;-52
2022/06/26 05:25:41;;;;;;;7.03;4.00;;;20.10;99.90;;;;;;5058110;28;20486;-51
2022/06/26 05:28:08;;;;;;;6.97;3.80;;;20.10;99.90;;;;;;5052670;28;20951;-53
2022/06/26 05:30:35;;;;;;;5.57;3.67;;;20.10;99.90;;;;;;5060828;28;20498;-52
2022/06/26 05:33:02;;;;;;;7.53;3.80;;;20.10;99.90;;;;;;5058304;28;20478;-52
2022/06/26 05:35:30;;;;;;;7.20;3.40;;;20.20;99.90;;;;;;5063271;28;20484;-52
2022/06/26 05:37:56;;;;;;;5.80;2.57;;;20.20;99.90;;;;;;5056791;28;20481;-51
2022/06/26 05:40:25;;;;;;;3.00;2.77;;;20.20;99.90;;;;;;5060411;28;21063;-52
2022/06/26 05:42:54;;;;;;;4.60;2.90;;;20.20;99.90;;;;;;5060343;28;20480;-53
2022/06/26 05:45:21;;;;;;;3.63;2.70;;;20.10;99.90;;;;;;5059445;28;20476;-52
2022/06/26 05:47:48;;;;;;;3.47;3.17;;;20.10;99.90;;;;;;5058409;28;20471;-53
2022/06/26 05:50:14;;;;;;;6.03;3.43;;;20.00;99.90;;;;;;5057008;28;20479;-53
2022/06/26 05:52:41;;;;;;;4.30;3.23;;;20.10;99.90;;;;;;5061437;28;20805;-53
2022/06/26 05:55:09;;;;;;;3.47;3.17;;;20.10;99.90;;;;;;5038762;28;20477;-53
2022/06/26 05:57:37;;;;;;;5.03;3.40;;;20.20;99.90;;;;;;5042964;28;20473;-53
2022/06/26 06:00:05;;;;;;;3.03;2.73;;;20.20;99.90;;;;;;5049223;28;20486;-52
2022/06/26 06:02:32;;;;;;;3.80;3.50;;;20.30;99.90;;;;;;5052394;28;20478;-53
2022/06/26 06:04:59;;;;;;;8.90;5.00;;;20.30;99.90;;;;;;5051236;28;20490;-52
2022/06/26 06:07:26;;;;;;;5.77;5.17;;;20.30;99.90;;;;;;5059424;28;20493;-52
2022/06/26 06:09:52;;;;;;;4.93;3.80;;;20.30;99.90;;;;;;5049867;28;20493;-52
2022/06/26 06:12:19;;;;;;;4.63;4.27;;;20.30;99.90;;;;;;5053739;28;20478;-52
2022/06/26 06:14:47;;;;;;;6.10;5.50;;;20.40;99.90;;;;;;5056478;28;20481;-53
2022/06/26 06:19:58;;;;;;;6.30;5.70;;;20.50;99.90;;;;;;5059143;28;20838;-53
2022/06/26 06:22:24;;;;;;;5.63;4.97;;;20.50;99.90;;;;;;5059423;28;20483;-52
2022/06/26 06:24:51;;;;;;;5.80;4.77;;;20.80;99.90;;;;;;5057913;28;20478;-53
2022/06/26 06:27:18;;;;;;;4.57;4.27;;;20.80;99.90;;;;;;5057411;28;20479;-53
2022/06/26 06:29:44;;;;;;;4.17;3.77;;;20.80;99.90;;;;;;5050742;28;20471;-52
2022/06/26 06:32:12;;;;;;;6.40;4.10;;;20.80;99.90;;;;;;5055603;28;20492;-52
2022/06/26 06:34:39;;;;;;;3.73;3.43;;;20.80;99.90;;;;;;5060026;28;20481;-53
2022/06/26 06:37:06;;;;;;;3.53;3.27;;;20.90;99.70;;;;;;5057836;28;20490;-52
2022/06/26 06:39:33;;;;;;;4.63;3.47;;;20.90;99.70;;;;;;5058972;28;20497;-53
2022/06/26 06:42:00;;;;;;;3.63;3.33;;;21.00;99.90;;;;;;5058340;28;20866;-53
2022/06/26 06:44:27;;;;;;;3.50;3.20;;;21.10;99.90;;;;;;5055692;28;21029;-53
2022/06/26 06:46:54;;;;;;;5.53;3.90;;;21.50;99.80;;;;;;5040093;28;20482;-52
2022/06/26 06:49:22;;;;;;;5.73;4.23;;;21.50;99.30;;;;;;5057617;28;20505;-52
2022/06/26 06:51:48;;;;;;;3.80;3.40;;;21.60;99.60;;;;;;5054232;28;20888;-52
2022/06/26 06:54:15;;;;;;;4.60;4.13;;;22.00;99.90;;;;;;5056220;28;20490;-52
2022/06/26 06:56:42;;;;;;;4.43;4.07;;;22.50;99.30;;;;;;5057247;28;20519;-53
2022/06/26 06:59:08;;;;;;;4.40;4.00;;;22.70;98.70;;;;;;5054680;28;20826;-53
2022/06/26 07:01:35;;;;;;;4.17;3.23;;;;;;;;;;5057831;28;20863;-53
2022/06/26 07:04:02;;;;;;;4.97;3.90;;;23.00;97.10;;;;;;5055320;28;20490;-53
2022/06/26 07:06:30;;;;;;;3.60;3.30;;;22.90;97.50;;;;;;5044338;28;21029;-53
2022/06/26 07:08:57;;;;;;;5.50;4.13;;;23.00;97.80;;;;;;5046621;28;20478;-53
2022/06/26 07:11:24;;;;;;;4.73;4.20;;;22.90;97.30;;;;;;5047347;28;20482;-53
2022/06/26 07:13:50;;;;;;;8.70;3.60;;;22.70;96.90;;;;;;5056088;28;20476;-53
2022/06/26 07:16:17;;;;;;;5.87;4.30;;;22.70;97.10;;;;;;5054578;28;20840;-53
2022/06/26 07:18:44;;;;;;;6.30;4.67;;;22.70;97.40;;;;;;5049656;28;20505;-53
2022/06/26 07:21:11;;;;;;;8.00;4.90;;;22.70;97.30;;;;;;5055012;28;20486;-53
2022/06/26 07:23:39;;;;;;;5.60;4.93;;;22.70;96.90;;;;;;5056118;28;20591;-53
2022/06/26 07:26:06;;;;;;;6.17;4.70;;;22.70;97.10;;;;;;5055461;28;20473;-53
2022/06/26 07:28:33;;;;;;;4.20;3.80;;;22.60;96.80;;;;;;5054534;28;20932;-52
2022/06/26 07:31:00;;;;;;;5.70;4.70;;;22.60;97.10;;;;;;5056253;28;20482;-53
2022/06/26 07:36:11;;;;;;;5.90;4.53;;;22.70;97.20;;;;;;5057455;28;20478;-52
2022/06/26 07:38:39;;;;;;;5.90;4.30;;;22.80;97.00;;;;;;5052998;28;20479;-51
2022/06/26 07:41:05;;;;;;;4.33;3.93;;;23.20;97.20;;;;;;5057423;28;20475;-52
2022/06/26 07:43:32;;;;;;;8.20;3.40;;;23.30;96.70;;;;;;5058119;28;20844;-52
2022/06/26 07:45:59;;;;;;;9.13;3.40;;;23.40;96.20;;;;;;5041945;28;20482;-52
2022/06/26 07:48:26;;;;;;;3.37;2.90;;;23.50;95.90;;;;;;5055531;28;20890;-52
2022/06/26 07:50:53;;;;;;;3.60;3.00;;;23.50;96.20;;;;;;5055888;28;20471;-52
2022/06/26 07:53:19;;;;;;;3.10;2.80;;;23.40;95.40;;;;;;5053743;28;20499;-52
2022/06/26 07:55:48;;;;;;;3.47;3.17;;;23.40;95.70;;;;;;5057722;28;20970;-52
2022/06/26 07:58:15;;;;;;;4.63;4.20;;;23.40;95.50;;;;;;5048893;28;20909;-52
2022/06/26 08:00:42;;;;;;;3.57;3.23;;;23.30;95.60;;;;;;5042115;28;21035;-52
2022/06/26 08:03:10;;;;;;;4.20;3.80;;;23.10;94.70;;;;;;5047732;28;20467;-52
2022/06/26 08:05:38;;;;;;;4.97;3.67;;;23.10;94.80;;;;;;5058308;28;20767;-51
2022/06/26 08:08:05;;;;;;;4.90;4.20;;;23.20;95.20;;;;;;5050302;28;20487;-51
2022/06/26 08:10:32;;;;;;;4.07;3.77;;;23.10;94.80;;;;;;5051514;28;20506;-51
2022/06/26 08:13:00;;;;;;;4.40;3.70;;;23.30;96.00;;;;;;5024706;28;20926;-51
2022/06/26 08:15:28;;;;;;;4.57;4.17;;;23.60;94.40;;;;;;5046456;28;20496;-52
2022/06/26 08:17:54;;;;;;;3.63;3.30;;;23.70;95.10;;;;;;5050883;28;20502;-52
2022/06/26 08:20:21;;;;;;;3.63;3.33;;;23.70;94.90;;;;;;5055010;28;20968;-52
2022/06/26 08:22:48;;;;;;;3.83;3.40;;;23.50;93.40;;;;;;5057850;28;20475;-52
2022/06/26 08:25:14;;;;;;;4.00;3.10;;;23.60;93.80;;;;;;5055347;28;20893;-51
2022/06/26 08:27:41;;;;;;;10.33;4.70;;;23.80;94.60;;;;;;5048236;28;21007;-51
2022/06/26 08:30:10;;;;;;;3.70;3.40;;;23.90;94.80;;;;;;5056065;28;20482;-51
2022/06/26 08:32:37;;;;;;;3.30;2.90;;;24.20;95.30;;;;;;5057459;28;20475;-51
2022/06/26 08:35:04;;;;;;;3.80;3.50;;;24.50;92.20;;;;;;5059454;28;20515;-51
2022/06/26 08:37:31;;;;;;;4.10;3.47;;;24.70;93.70;;;;;;5055609;28;20466;-50
2022/06/26 08:39:58;;;;;;;3.97;2.53;;;24.90;92.80;;;;;;5054625;28;20545;-51
2022/06/26 08:42:27;;;;;;;5.23;2.70;;;25.00;92.70;;;;;;5061321;28;20511;-51
2022/06/26 08:44:56;;;;;;;3.63;3.33;;;25.10;92.20;;;;;;5054841;28;20457;-51
2022/06/26 08:47:26;;;;;;;3.23;2.93;;;24.90;92.40;;;;;;5053908;28;20487;-51
2022/06/26 08:49:53;;;;;;;3.83;3.20;;;24.70;91.70;;;;;;5055232;28;20483;-51
2022/06/26 08:52:22;;;;;;;3.47;3.17;;;24.60;91.60;;;;;;5049018;28;20479;-51
2022/06/26 08:54:49;;;;;;;5.07;3.10;;;24.50;91.90;;;;;;5055492;28;20487;-50
2022/06/26 08:57:16;;;;;;;3.37;3.07;;;24.60;92.40;;;;;;5053908;28;20528;-53
2022/06/26 08:59:43;;;;;;;2.80;2.60;;;24.40;91.70;;;;;;5060438;28;20548;-52
2022/06/26 09:02:10;;;;;;;3.33;3.03;;;;;;;;;;5057197;28;20992;-52
2022/06/26 09:04:38;;;;;;;4.57;2.77;;;24.10;91.50;;;;;;5056963;28;20540;-52
2022/06/26 09:07:07;;;;;;;3.73;3.40;;;24.10;91.50;;;;;;5053095;28;20505;-53
2022/06/26 09:09:33;;;;;;;2.60;2.40;;;24.10;91.90;;;;;;5044312;28;20441;-54
2022/06/26 09:12:02;;;;;;;2.70;2.50;;;24.10;92.10;;;;;;5055378;28;20503;-51
2022/06/26 09:14:30;;;;;;;4.27;2.10;;;24.00;91.30;;;;;;5057580;28;20892;-52
2022/06/26 09:16:57;;;;;;;3.10;2.80;;;24.00;92.30;;;;;;5055976;28;20475;-52
2022/06/26 09:19:28;;;;;;;2.87;2.23;;;23.80;91.80;;;;;;5058563;28;20482;-52
2022/06/26 09:22:08;;;;;;;4.40;2.03;;;23.70;91.90;;;;;;5056159;28;20829;-52
2022/06/26 09:24:36;;;;;;;3.03;2.30;;;23.70;92.60;;;;;;5058846;28;20489;-53
2022/06/26 09:27:05;;;;;;;3.87;2.97;;;23.70;92.60;;;;;;5037690;28;20554;-53
2022/06/26 09:29:32;;;;;;;6.87;2.73;;;23.60;92.20;;;;;;5042073;28;20453;-52
2022/06/26 09:32:07;;;;;;;4.63;2.93;;;23.50;92.50;;;;;;5056819;28;20450;-52
2022/06/26 09:34:34;;;;;;;5.33;2.63;;;23.40;92.40;;;;;;5057129;28;20448;-52
2022/06/26 09:37:02;;;;;;;3.20;2.30;;;23.50;92.90;;;;;;5054934;28;20971;-52
2022/06/26 09:39:33;;;;;;;3.07;2.77;;;23.40;92.90;;;;;;5056354;28;20484;-51
2022/06/26 09:42:04;;;;;;;2.80;2.57;;;23.40;92.90;;;;;;5047382;28;20488;-51
2022/06/26 09:44:31;;;;;;;2.80;2.50;;;23.30;93.10;;;;;;5046680;28;20935;-51
2022/06/26 09:46:58;;;;;;;2.73;2.53;;;23.30;92.80;;;;;;5052502;28;20816;-52
2022/06/26 09:49:25;;;;;;;2.63;2.13;;;23.30;93.40;;;;;;5057004;28;20494;-52
2022/06/26 09:51:51;;;;;;;2.53;2.30;;;23.40;93.00;;;;;;5064547;28;20512;-52
2022/06/26 09:54:18;;;;;;;2.63;2.43;;;23.40;94.00;;;;;;5058172;28;20838;-52
2022/06/26 09:56:46;;;;;;;3.50;2.67;;;23.40;93.80;;;;;;5062489;28;20457;-52
2022/06/26 09:59:14;;;;;;;4.70;3.27;;;23.40;93.70;;;;;;5061443;28;20954;-52
2022/06/26 10:07:07;;;;;;;3.60;2.80;;;23.60;93.70;;;;;;5061088;28;20478;-51
2022/06/26 10:09:35;;;;;;;2.53;2.33;;;23.60;93.60;;;;;;5061018;28;20486;-53
2022/06/26 10:12:05;;;;;;;2.90;2.60;;;23.60;93.70;;;;;;5056346;28;20483;-52
2022/06/26 10:14:37;;;;;;;3.10;2.50;;;23.60;93.50;;;;;;5058014;28;20944;-52
2022/06/26 10:17:35;;;;;;;3.70;2.70;;;23.60;94.30;;;;;;5056696;28;20468;-52
2022/06/26 10:20:05;;;;;;;8.40;2.80;;;23.70;94.70;;;;;;5058080;28;20528;-52
2022/06/26 10:22:39;;;;;;;3.73;2.70;;;23.70;94.90;;;;;;5056602;28;20494;-52
2022/06/26 10:25:07;;;;;;;3.90;3.17;;;23.60;94.30;;;;;;5055875;28;21042;-52
2022/06/26 10:27:37;;;;;;;4.67;3.23;;;23.60;94.50;;;;;;5062484;28;20475;-53
2022/06/26 10:30:07;;;;;;;3.50;3.20;;;23.60;93.90;;;;;;5056589;28;20994;-52
2022/06/26 10:32:34;;;;;;;4.70;4.20;;;23.50;94.10;;;;;;5059418;28;20520;-54
2022/06/26 10:35:00;;;;;;;4.03;3.63;;;23.50;94.50;;;;;;5062413;28;20483;-51
2022/06/26 10:37:28;;;;;;;5.50;3.57;;;23.40;94.50;;;;;;5060276;28;20490;-51
2022/06/26 10:39:55;;;;;;;4.33;3.93;;;23.50;94.80;;;;;;5058788;28;20480;-53
2022/06/26 10:45:11;;;;;;;5.23;4.73;;;23.50;95.70;;;;;;5052430;28;20464;-52
2022/06/26 10:47:57;;;;;;;6.00;5.40;;;23.40;95.00;;;;;;5060228;28;20460;-52
2022/06/26 10:50:26;;;;;;;5.60;5.07;;;23.40;95.40;;;;;;5058312;28;20499;-52
2022/06/26 10:52:53;;;;;;;6.80;5.67;;;23.40;95.40;;;;;;5058775;28;20474;-52
2022/06/26 10:55:19;;;;;;;5.80;5.30;;;23.30;95.70;;;;;;5050314;28;20482;-52
2022/06/26 10:57:47;;;;;;;7.87;5.40;;;23.10;95.50;;;;;;5040294;28;20466;-52
2022/06/26 11:00:16;;;;;;;5.60;5.10;;;23.10;95.80;;;;;;5053000;28;20489;-52
2022/06/26 11:02:45;;;;;;;7.37;6.40;;;23.00;95.70;;;;;;5057753;28;20734;-52
2022/06/26 11:05:12;;;;;;;6.97;5.70;;;22.90;95.80;;;;;;5056121;28;20558;-52
2022/06/26 11:07:43;;;;;;;7.83;6.43;;;22.80;96.00;;;;;;5046974;28;20935;-52
2022/06/26 11:10:12;;;;;;;5.90;5.40;;;22.60;96.30;;;;;;5052339;28;20884;-53
2022/06/26 11:12:44;;;;;;;7.47;6.40;;;22.60;96.20;;;;;;5050637;28;20483;-53
2022/06/26 11:15:27;;;;;;;5.27;4.77;;;22.50;96.20;;;;;;5054193;28;21276;-53
2022/06/26 11:18:00;;;;;;;5.23;4.73;;;22.50;96.70;;;;;;5043615;28;20978;-52
2022/06/26 11:20:49;;;;;;;6.90;5.07;;;22.40;96.70;;;;;;5058068;28;20493;-52
2022/06/26 11:23:19;;;;;;;6.30;5.70;;;22.30;96.50;;;;;;5057072;28;20478;-52
2022/06/26 11:25:46;;;;;;;6.57;6.00;;;22.30;96.70;;;;;;5056828;28;20532;-52
2022/06/26 11:28:13;;;;;;;5.43;4.93;;;22.30;97.00;;;;;;5057254;28;20489;-52
2022/06/26 11:30:42;;;;;;;8.33;6.70;;;22.30;97.30;;;;;;5053326;28;20485;-52
2022/06/26 11:33:10;;;;;;;8.43;7.13;;;22.30;97.00;;;;;;5056394;28;20478;-52
2022/06/26 11:35:37;;;;;;;11.37;7.03;;;22.30;97.40;;;;;;5055402;28;21174;-51
2022/06/26 11:38:12;;;;;;;7.37;6.67;;;22.30;97.80;;;;;;5056787;28;20486;-52
2022/06/26 11:40:39;;;;;;;8.83;7.20;;;22.30;97.60;;;;;;5047151;28;20573;-52
2022/06/26 11:43:06;;;;;;;8.37;7.47;;;22.30;96.60;;;;;;5052546;28;20486;-52
2022/06/26 11:45:34;;;;;;;9.07;7.50;;;22.30;96.50;;;;;;5055997;28;20485;-52
2022/06/26 11:48:06;;;;;;;15.43;7.07;;;22.30;96.50;;;;;;5055411;28;20530;-52
2022/06/26 11:50:35;;;;;;;12.87;8.03;;;22.30;96.60;;;;;;5056815;28;20863;-52
2022/06/26 11:53:04;;;;;;;7.73;6.80;;;22.30;97.30;;;;;;5055768;28;21007;-52
2022/06/26 11:55:31;;;;;;;9.33;8.33;;;22.40;96.90;;;;;;5062096;28;20479;-53
2022/06/26 11:58:02;;;;;;;7.83;7.20;;;22.40;97.10;;;;;;5057301;28;20482;-52
2022/06/26 12:00:29;;;;;;;8.83;7.90;;;22.40;97.00;;;;;;5059436;28;20490;-52
2022/06/26 12:02:56;;;;;;;9.40;7.10;;;22.40;97.50;;;;;;5045753;28;21012;-53
2022/06/26 12:05:27;;;;;;;8.33;7.50;;;22.40;97.60;;;;;;5046638;28;20839;-52
2022/06/26 12:07:55;;;;;;;9.93;7.57;;;22.40;97.60;;;;;;5027276;28;20475;-51
2022/06/26 12:10:27;;;;;;;7.57;6.60;;;22.50;97.90;;;;;;5057154;28;20466;-51
2022/06/26 12:12:54;;;;;;;8.80;7.60;;;22.60;98.20;;;;;;5040282;28;20506;-51
2022/06/26 12:15:22;;;;;;;8.90;7.73;;;22.70;98.50;;;;;;5057747;28;20469;-52
2022/06/26 12:17:53;;;;;;;9.77;8.90;;;22.80;97.00;;;;;;5053238;28;20493;-52
2022/06/26 12:20:20;;;;;;;8.40;7.60;;;22.80;96.70;;;;;;5055013;28;20485;-52
2022/06/26 12:22:51;;;;;;;8.97;8.07;;;22.90;97.60;;;;;;5046066;28;20478;-52
2022/06/26 12:25:29;;;;;;;11.20;7.97;;;22.90;97.60;;;;;;5050801;28;20496;-52
2022/06/26 12:27:57;;;;;;;8.43;7.63;;;23.00;97.70;;;;;;5028005;28;20494;-52
2022/06/26 12:30:27;;;;;;;8.57;7.77;;;23.00;98.10;;;;;;5049793;28;20485;-52
2022/06/26 12:32:54;;;;;;;8.90;8.10;;;23.00;97.50;;;;;;5056407;28;20989;-52
2022/06/26 12:35:21;;;;;;;8.97;8.07;;;22.90;97.60;;;;;;5056190;28;20675;-52
2022/06/26 12:37:49;;;;;;;9.37;8.47;;;23.00;97.70;;;;;;5055611;28;20569;-52
2022/06/26 12:40:16;;;;;;;7.90;7.17;;;23.00;97.60;;;;;;5056243;28;20482;-52
2022/06/26 12:42:43;;;;;;;9.67;8.67;;;23.00;97.30;;;;;;5055723;28;20951;-52
2022/06/26 12:45:10;;;;;;;9.80;8.90;;;23.10;97.20;;;;;;5048722;28;20493;-52
2022/06/26 12:47:37;;;;;;;11.30;10.07;;;23.20;98.00;;;;;;5047414;28;21055;-52
2022/06/26 12:50:05;;;;;;;9.33;8.40;;;23.30;97.90;;;;;;5046212;28;20453;-53
2022/06/26 12:52:33;;;;;;;10.80;8.73;;;23.50;97.30;;;;;;5055376;28;20485;-52
2022/06/26 12:55:01;;;;;;;9.97;9.07;;;23.50;97.20;;;;;;5053081;28;21028;-53
2022/06/26 12:57:28;;;;;;;10.37;9.47;;;23.50;97.40;;;;;;5052115;28;20453;-51
2022/06/26 12:59:55;;;;;;;11.80;8.87;;;23.60;96.90;;;;;;5054504;28;20823;-52
2022/06/26 13:02:21;;;;;;;10.17;9.10;;;23.60;97.20;;;;;;5034286;28;20488;-52
2022/06/26 13:04:48;;;;;;;9.50;8.70;;;23.60;96.80;;;;;;5050397;28;21371;-52
2022/06/26 13:07:15;;;;;;;8.93;8.13;;;23.70;96.80;;;;;;5049982;28;20474;-52